Time,TemperatureF,DewpointF,PressureIn,WindDirection,WindDirectionDegrees,WindSpeedMPH,WindSpeedGustMPH,Humidity,HourlyPrecipIn,Conditions,Clouds,dailyrainin,SoftwareType,DateUTC
2013-09-13 00:00:00,67.4,65.9,29.77,NW,323,0.0,0.0,95,0.00,,---,0.42,VWS V14.01,2013-09-13 04:00:00,
2013-09-13 00:01:00,67.4,65.9,29.77,NW,323,0.0,0.0,95,0.00,,---,0.42,VWS V14.01,2013-09-13 04:01:00,
2013-09-13 00:05:00,67.5,66.6,29.77,NNW,328,0.0,0.0,97,0.00,,---,0.42,VWS V14.01,2013-09-13 04:05:00,
2013-09-13 00:06:00,67.4,65.6,29.77,NW,318,0.0,0.0,94,0.00,,---,0.00,VWS V14.01,2013-09-13 04:06:00,
2013-09-13 00:10:00,67.4,66.5,29.77,NNW,338,0.0,0.0,97,0.00,,---,0.42,VWS V14.01,2013-09-13 04:10:00,
2013-09-13 00:11:00,67.4,65.6,29.77,NE,36,0.0,0.0,94,0.00,,---,0.00,VWS V14.01,2013-09-13 04:11:00,
2013-09-13 00:15:00,67.2,66.3,29.77,North,355,0.0,0.0,97,0.00,,---,0.42,VWS V14.01,2013-09-13 04:15:00,
2013-09-13 00:16:00,67.5,66.0,29.76,NW,323,0.0,0.0,95,0.00,,---,0.00,VWS V14.01,2013-09-13 04:16:00,
2013-09-13 00:20:00,67.2,66.0,29.77,WNW,300,0.0,0.0,96,0.00,,---,0.42,VWS V14.01,2013-09-13 04:20:00,
2013-09-13 00:21:00,67.5,66.0,29.76,NW,323,0.0,0.0,95,0.00,,---,0.00,VWS V14.01,2013-09-13 04:21:00,
2013-09-13 00:25:00,67.2,66.0,29.77,NW,319,0.0,0.0,96,0.00,,---,0.42,VWS V14.01,2013-09-13 04:25:00,
2013-09-13 00:26:00,67.4,65.9,29.76,NW,323,0.0,0.0,95,0.00,,---,0.00,VWS V14.01,2013-09-13 04:26:00,
2013-09-13 00:30:00,67.2,66.0,29.77,NW,317,0.0,0.0,96,0.00,,---,0.42,VWS V14.01,2013-09-13 04:30:00,
2013-09-13 00:31:00,67.2,65.7,29.76,NW,307,0.0,0.0,95,0.00,,---,0.00,VWS V14.01,2013-09-13 04:31:00,
2013-09-13 00:35:00,67.2,65.7,29.77,WNW,301,0.0,0.0,95,0.00,,---,0.42,VWS V14.01,2013-09-13 04:35:00,
2013-09-13 00:36:00,67.0,65.5,29.76,NNW,346,0.0,0.0,95,0.00,,---,0.00,VWS V14.01,2013-09-13 04:36:00,
2013-09-13 00:40:00,67.4,65.9,29.77,SSW,192,0.0,0.0,95,0.00,,---,0.42,VWS V14.01,2013-09-13 04:40:00,
2013-09-13 00:41:00,66.9,65.4,29.76,NW,325,0.0,0.0,95,0.00,,---,0.00,VWS V14.01,2013-09-13 04:41:00,
2013-09-13 00:45:00,67.4,65.9,29.77,NW,323,0.0,0.0,95,0.00,,---,0.42,VWS V14.01,2013-09-13 04:45:00,
2013-09-13 00:46:00,66.9,65.4,29.76,NW,316,0.0,0.0,95,0.00,,---,0.00,VWS V14.01,2013-09-13 04:46:00,
2013-09-13 00:50:00,67.5,66.0,29.77,NW,323,0.0,0.0,95,0.00,,---,0.42,VWS V14.01,2013-09-13 04:50:00,
2013-09-13 00:51:00,66.7,65.2,29.76,NW,323,0.0,0.0,95,0.00,,---,0.00,VWS V14.01,2013-09-13 04:51:00,
2013-09-13 00:55:00,67.5,66.0,29.77,NW,323,0.0,0.0,95,0.00,,---,0.42,VWS V14.01,2013-09-13 04:55:00,
2013-09-13 00:56:00,66.5,65.0,29.76,NNW,328,0.0,0.0,95,0.00,,---,0.00,VWS V14.01,2013-09-13 04:56:00,
2013-09-13 01:00:00,67.4,65.9,29.77,NW,323,0.0,0.0,95,0.00,,---,0.42,VWS V14.01,2013-09-13 05:00:00,
2013-09-13 01:01:00,66.4,64.9,29.75,NW,324,0.0,0.0,95,0.00,,---,0.00,VWS V14.01,2013-09-13 05:01:00,
2013-09-13 01:05:00,67.4,65.6,29.77,NW,318,0.0,0.0,94,0.00,,---,0.00,VWS V14.01,2013-09-13 05:05:00,
2013-09-13 01:06:00,66.2,64.7,29.75,NW,317,0.0,0.0,95,0.00,,---,0.00,VWS V14.01,2013-09-13 05:06:00,
2013-09-13 01:10:00,67.4,65.6,29.77,NE,36,0.0,0.0,94,0.00,,---,0.00,VWS V14.01,2013-09-13 05:10:00,
2013-09-13 01:11:00,66.2,64.7,29.75,NW,317,0.0,0.0,95,0.00,,---,0.00,VWS V14.01,2013-09-13 05:11:00,
2013-09-13 01:15:00,67.5,66.0,29.76,NW,323,0.0,0.0,95,0.00,,---,0.00,VWS V14.01,2013-09-13 05:15:00,
2013-09-13 01:16:00,66.2,64.7,29.75,NNW,329,0.0,0.0,95,0.00,,---,0.00,VWS V14.01,2013-09-13 05:16:00,
2013-09-13 01:20:00,67.5,66.0,29.76,NW,323,0.0,0.0,95,0.00,,---,0.00,VWS V14.01,2013-09-13 05:20:00,
2013-09-13 01:21:00,66.0,64.2,29.75,North,351,0.0,0.0,94,0.00,,---,0.00,VWS V14.01,2013-09-13 05:21:00,
2013-09-13 01:25:00,67.4,65.9,29.76,NW,323,0.0,0.0,95,0.00,,---,0.00,VWS V14.01,2013-09-13 05:25:00,
2013-09-13 01:26:00,66.0,64.5,29.75,North,351,0.0,0.0,95,0.00,,---,0.00,VWS V14.01,2013-09-13 05:26:00,
2013-09-13 01:30:00,67.2,65.7,29.76,NW,308,0.0,0.0,95,0.00,,---,0.00,VWS V14.01,2013-09-13 05:30:00,
2013-09-13 01:31:00,66.0,64.2,29.75,North,351,0.0,0.0,94,0.00,,---,0.00,VWS V14.01,2013-09-13 05:31:00,
2013-09-13 01:35:00,67.0,65.5,29.76,NNW,346,0.0,0.0,95,0.00,,---,0.00,VWS V14.01,2013-09-13 05:35:00,
2013-09-13 01:36:00,66.0,64.5,29.75,North,351,0.0,0.0,95,0.00,,---,0.00,VWS V14.01,2013-09-13 05:36:00,
2013-09-13 01:40:00,66.9,65.4,29.76,NW,325,0.0,0.0,95,0.00,,---,0.00,VWS V14.01,2013-09-13 05:40:00,
2013-09-13 01:41:00,66.0,64.5,29.75,North,351,0.0,0.0,95,0.00,,---,0.00,VWS V14.01,2013-09-13 05:41:00,
2013-09-13 01:45:00,66.9,65.4,29.76,NW,316,0.0,0.0,95,0.00,,---,0.00,VWS V14.01,2013-09-13 05:45:00,
2013-09-13 01:46:00,65.9,64.4,29.75,North,351,0.0,0.0,95,0.00,,---,0.00,VWS V14.01,2013-09-13 05:46:00,
2013-09-13 01:50:00,66.7,65.2,29.76,NW,323,0.0,0.0,95,0.00,,---,0.00,VWS V14.01,2013-09-13 05:50:00,
2013-09-13 01:51:00,65.7,64.2,29.75,NNW,336,0.0,0.0,95,0.00,,---,0.00,VWS V14.01,2013-09-13 05:51:00,
2013-09-13 01:55:00,66.5,65.0,29.76,NNW,329,0.0,0.0,95,0.00,,---,0.00,VWS V14.01,2013-09-13 05:55:00,
2013-09-13 01:56:00,65.5,64.0,29.75,NW,311,0.0,0.0,95,0.00,,---,0.00,VWS V14.01,2013-09-13 05:56:00,
2013-09-13 02:00:00,66.4,64.9,29.75,NW,324,0.0,0.0,95,0.00,,---,0.00,VWS V14.01,2013-09-13 06:00:00,
2013-09-13 02:01:00,65.2,63.7,29.74,NW,316,0.0,0.0,95,0.00,,---,0.00,VWS V14.01,2013-09-13 06:01:00,
2013-09-13 02:05:00,66.2,64.7,29.75,NW,317,0.0,0.0,95,0.00,,---,0.00,VWS V14.01,2013-09-13 06:05:00,
2013-09-13 02:06:00,64.9,63.4,29.74,WNW,298,0.0,0.0,95,0.00,,---,0.00,VWS V14.01,2013-09-13 06:06:00,
2013-09-13 02:10:00,66.2,64.7,29.75,NW,321,0.0,0.0,95,0.00,,---,0.00,VWS V14.01,2013-09-13 06:10:00,
2013-09-13 02:11:00,64.7,63.2,29.74,NNW,328,0.0,0.0,95,0.00,,---,0.00,VWS V14.01,2013-09-13 06:11:00,
2013-09-13 02:15:00,66.2,64.7,29.75,NNW,329,0.0,0.0,95,0.00,,---,0.00,VWS V14.01,2013-09-13 06:15:00,
2013-09-13 02:16:00,64.6,63.4,29.73,WNW,300,0.0,0.0,96,0.00,,---,0.00,VWS V14.01,2013-09-13 06:16:00,
2013-09-13 02:20:00,66.0,64.2,29.75,North,351,0.0,0.0,94,0.00,,---,0.00,VWS V14.01,2013-09-13 06:20:00,
2013-09-13 02:21:00,64.4,63.2,29.73,NW,317,0.0,0.0,96,0.00,,---,0.00,VWS V14.01,2013-09-13 06:21:00,
2013-09-13 02:25:00,66.0,64.5,29.75,North,351,0.0,0.0,95,0.00,,---,0.00,VWS V14.01,2013-09-13 06:25:00,
2013-09-13 02:26:00,64.4,63.2,29.73,West,259,0.0,0.0,96,0.00,,---,0.00,VWS V14.01,2013-09-13 06:26:00,
2013-09-13 02:30:00,66.0,64.2,29.75,North,351,0.0,0.0,94,0.00,,---,0.00,VWS V14.01,2013-09-13 06:30:00,
2013-09-13 02:31:00,64.3,63.1,29.73,NW,305,0.0,0.0,96,0.00,,---,0.00,VWS V14.01,2013-09-13 06:31:00,
2013-09-13 02:35:00,66.0,64.5,29.75,North,351,0.0,0.0,95,0.00,,---,0.00,VWS V14.01,2013-09-13 06:35:00,
2013-09-13 02:36:00,64.3,63.1,29.73,NW,305,0.0,0.0,96,0.00,,---,0.00,VWS V14.01,2013-09-13 06:36:00,
2013-09-13 02:40:00,66.0,64.5,29.75,North,351,0.0,0.0,95,0.00,,---,0.00,VWS V14.01,2013-09-13 06:40:00,
2013-09-13 02:41:00,64.1,62.9,29.73,NW,305,0.0,0.0,96,0.00,,---,0.00,VWS V14.01,2013-09-13 06:41:00,
2013-09-13 02:45:00,65.9,64.4,29.75,North,351,0.0,0.0,95,0.00,,---,0.00,VWS V14.01,2013-09-13 06:45:00,
2013-09-13 02:46:00,64.1,62.9,29.73,NW,305,0.0,0.0,96,0.00,,---,0.00,VWS V14.01,2013-09-13 06:46:00,
2013-09-13 02:50:00,65.7,64.2,29.75,NNW,336,0.0,0.0,95,0.00,,---,0.00,VWS V14.01,2013-09-13 06:50:00,
2013-09-13 02:51:00,63.9,62.7,29.73,NW,305,0.0,0.0,96,0.00,,---,0.00,VWS V14.01,2013-09-13 06:51:00,
2013-09-13 02:55:00,65.4,63.9,29.75,NW,313,0.0,0.0,95,0.00,,---,0.00,VWS V14.01,2013-09-13 06:55:00,
2013-09-13 02:56:00,63.8,62.6,29.73,NW,305,0.0,0.0,96,0.00,,---,0.00,VWS V14.01,2013-09-13 06:56:00,
2013-09-13 03:00:00,65.1,63.6,29.74,NW,316,0.0,0.0,95,0.00,,---,0.00,VWS V14.01,2013-09-13 07:00:00,
2013-09-13 03:01:00,63.6,62.4,29.72,NW,306,0.0,0.0,96,0.00,,---,0.00,VWS V14.01,2013-09-13 07:01:00,
2013-09-13 03:05:00,64.9,63.4,29.74,NW,316,0.0,0.0,95,0.00,,---,0.00,VWS V14.01,2013-09-13 07:05:00,
2013-09-13 03:06:00,63.4,62.5,29.72,NW,309,0.0,0.0,97,0.00,,---,0.00,VWS V14.01,2013-09-13 07:06:00,
2013-09-13 03:10:00,64.7,63.5,29.74,WNW,300,0.0,0.0,96,0.00,,---,0.00,VWS V14.01,2013-09-13 07:10:00,
2013-09-13 03:11:00,63.3,62.4,29.72,NW,312,0.0,0.0,97,0.00,,---,0.00,VWS V14.01,2013-09-13 07:11:00,
2013-09-13 03:15:00,64.6,63.4,29.73,WNW,300,0.0,0.0,96,0.00,,---,0.00,VWS V14.01,2013-09-13 07:15:00,
2013-09-13 03:16:00,63.3,62.4,29.72,NW,324,0.0,0.0,97,0.00,,---,0.00,VWS V14.01,2013-09-13 07:16:00,
2013-09-13 03:20:00,64.4,63.2,29.73,NW,317,0.0,0.0,96,0.00,,---,0.00,VWS V14.01,2013-09-13 07:20:00,
2013-09-13 03:21:00,63.1,62.2,29.72,NW,324,0.0,0.0,97,0.00,,---,0.00,VWS V14.01,2013-09-13 07:21:00,
2013-09-13 03:25:00,64.4,63.2,29.73,West,259,0.0,0.0,96,0.00,,---,0.00,VWS V14.01,2013-09-13 07:25:00,
2013-09-13 03:26:00,63.0,62.1,29.72,NW,324,0.0,0.0,97,0.00,,---,0.00,VWS V14.01,2013-09-13 07:26:00,
2013-09-13 03:30:00,64.3,63.1,29.73,NW,305,0.0,0.0,96,0.00,,---,0.00,VWS V14.01,2013-09-13 07:30:00,
2013-09-13 03:31:00,63.0,62.1,29.73,NW,324,0.0,0.0,97,0.00,,---,0.00,VWS V14.01,2013-09-13 07:31:00,
2013-09-13 03:35:00,64.3,63.1,29.73,NW,305,0.0,0.0,96,0.00,,---,0.00,VWS V14.01,2013-09-13 07:35:00,
2013-09-13 03:36:00,62.8,61.9,29.73,NW,315,0.0,0.0,97,0.00,,---,0.00,VWS V14.01,2013-09-13 07:36:00,
2013-09-13 03:40:00,64.1,62.9,29.73,NW,305,0.0,0.0,96,0.00,,---,0.00,VWS V14.01,2013-09-13 07:40:00,
2013-09-13 03:41:00,62.8,61.9,29.73,NW,315,0.0,0.0,97,0.00,,---,0.00,VWS V14.01,2013-09-13 07:41:00,
2013-09-13 03:45:00,64.1,62.9,29.73,NW,305,0.0,0.0,96,0.00,,---,0.00,VWS V14.01,2013-09-13 07:45:00,
2013-09-13 03:46:00,62.6,61.7,29.73,NW,315,0.0,0.0,97,0.00,,---,0.00,VWS V14.01,2013-09-13 07:46:00,
2013-09-13 03:50:00,63.9,62.7,29.73,NW,305,0.0,0.0,96,0.00,,---,0.00,VWS V14.01,2013-09-13 07:50:00,
2013-09-13 03:51:00,62.5,61.9,29.73,NW,315,0.0,0.0,98,0.00,,---,0.00,VWS V14.01,2013-09-13 07:51:00,
2013-09-13 03:55:00,63.8,62.6,29.73,NW,305,0.0,0.0,96,0.00,,---,0.00,VWS V14.01,2013-09-13 07:55:00,
2013-09-13 03:56:00,62.5,61.6,29.73,NW,315,0.0,0.0,97,0.00,,---,0.00,VWS V14.01,2013-09-13 07:56:00,
2013-09-13 04:00:00,63.6,62.4,29.72,NW,306,0.0,0.0,96,0.00,,---,0.00,VWS V14.01,2013-09-13 08:00:00,
2013-09-13 04:01:00,62.3,61.7,29.73,NW,317,0.0,0.0,98,0.00,,---,0.00,VWS V14.01,2013-09-13 08:01:00,
2013-09-13 04:05:00,63.4,62.5,29.72,NW,316,0.0,0.0,97,0.00,,---,0.00,VWS V14.01,2013-09-13 08:05:00,
2013-09-13 04:06:00,62.2,61.6,29.73,NW,309,0.0,0.0,98,0.00,,---,0.00,VWS V14.01,2013-09-13 08:06:00,
2013-09-13 04:10:00,62.2,61.6,29.73,NW,310,0.0,0.0,98,0.00,,---,0.00,VWS V14.01,2013-09-13 08:10:00,
2013-09-13 04:15:00,62.0,61.4,29.74,NW,326,0.0,0.0,98,0.00,,---,0.00,VWS V14.01,2013-09-13 08:15:00,
2013-09-13 04:20:00,62.0,61.4,29.74,NW,316,0.0,0.0,98,0.00,,---,0.00,VWS V14.01,2013-09-13 08:20:00,
2013-09-13 04:25:00,62.0,61.4,29.74,NW,317,0.0,0.0,98,0.00,,---,0.00,VWS V14.01,2013-09-13 08:25:00,
2013-09-13 04:30:00,61.8,61.2,29.74,NW,317,0.0,0.0,98,0.00,,---,0.00,VWS V14.01,2013-09-13 08:30:00,
2013-09-13 04:35:00,61.8,61.2,29.74,NW,321,0.0,0.0,98,0.00,,---,0.00,VWS V14.01,2013-09-13 08:35:00,
2013-09-13 04:40:00,61.8,61.2,29.74,NW,316,0.0,0.0,98,0.00,,---,0.00,VWS V14.01,2013-09-13 08:40:00,
2013-09-13 04:45:00,61.8,61.2,29.74,NW,319,0.0,0.0,98,0.00,,---,0.00,VWS V14.01,2013-09-13 08:45:00,
2013-09-13 04:50:00,61.7,61.1,29.74,NW,314,0.0,0.0,98,0.00,,---,0.00,VWS V14.01,2013-09-13 08:50:00,
2013-09-13 04:55:00,61.7,61.1,29.74,NW,314,0.0,0.0,98,0.00,,---,0.00,VWS V14.01,2013-09-13 08:55:00,
2013-09-13 05:00:00,61.7,61.1,29.74,NW,324,0.0,0.0,98,0.00,,---,0.00,VWS V14.01,2013-09-13 09:00:00,
2013-09-13 05:05:00,61.7,61.1,29.74,NW,319,0.0,0.0,98,0.00,,---,0.00,VWS V14.01,2013-09-13 09:05:00,
2013-09-13 05:10:00,61.7,61.1,29.74,NW,310,0.0,0.0,98,0.00,,---,0.00,VWS V14.01,2013-09-13 09:10:00,
2013-09-13 05:15:00,61.8,61.2,29.74,NNW,328,0.0,0.0,98,0.00,,---,0.00,VWS V14.01,2013-09-13 09:15:00,
2013-09-13 05:20:00,61.8,61.2,29.74,NNW,330,0.0,0.0,98,0.00,,---,0.00,VWS V14.01,2013-09-13 09:20:00,
2013-09-13 05:25:00,62.0,61.4,29.74,NW,321,0.0,0.0,98,0.00,,---,0.00,VWS V14.01,2013-09-13 09:25:00,
2013-09-13 05:30:00,62.0,61.7,29.74,NNW,337,0.0,0.0,99,0.00,,---,0.00,VWS V14.01,2013-09-13 09:30:00,
2013-09-13 05:35:00,62.2,61.9,29.74,North,360,0.0,0.0,99,0.00,,---,0.00,VWS V14.01,2013-09-13 09:35:00,
2013-09-13 05:40:00,62.6,62.0,29.74,NNE,24,0.0,10.0,98,0.00,,---,0.00,VWS V14.01,2013-09-13 09:40:00,
2013-09-13 05:45:00,63.1,62.2,29.74,WNW,291,0.0,10.0,97,0.00,,---,0.00,VWS V14.01,2013-09-13 09:45:00,
2013-09-13 05:50:00,63.8,62.0,29.74,WNW,294,2.0,7.0,94,0.00,,---,0.00,VWS V14.01,2013-09-13 09:50:00,
2013-09-13 05:55:00,64.4,61.7,29.74,NNW,343,5.0,10.0,91,0.00,,---,0.00,VWS V14.01,2013-09-13 09:55:00,
2013-09-13 06:00:00,64.9,60.9,29.74,NNW,347,3.0,9.0,87,0.00,,---,0.00,VWS V14.01,2013-09-13 10:00:00,
2013-09-13 06:05:00,65.4,61.1,29.75,NNW,332,5.0,5.0,86,0.00,,---,0.00,VWS V14.01,2013-09-13 10:05:00,
2013-09-13 06:10:00,65.7,60.7,29.75,North,350,5.0,6.0,84,0.00,,---,0.00,VWS V14.01,2013-09-13 10:10:00,
2013-09-13 06:15:00,66.0,60.3,29.75,NNW,348,6.0,10.0,82,0.00,,---,0.00,VWS V14.01,2013-09-13 10:15:00,
2013-09-13 06:20:00,66.5,60.5,29.75,North,355,9.0,10.0,81,0.00,,---,0.00,VWS V14.01,2013-09-13 10:20:00,
2013-09-13 06:25:00,66.7,60.3,29.75,North,360,5.0,13.0,80,0.00,,---,0.00,VWS V14.01,2013-09-13 10:25:00,
2013-09-13 06:30:00,66.7,60.0,29.75,NNW,344,9.0,9.0,79,0.00,,---,0.00,VWS V14.01,2013-09-13 10:30:00,
2013-09-13 06:35:00,66.7,60.0,29.75,North,355,6.0,14.0,79,0.00,,---,0.00,VWS V14.01,2013-09-13 10:35:00,
2013-09-13 06:40:00,66.7,59.6,29.75,NNE,13,7.0,11.0,78,0.00,,---,0.00,VWS V14.01,2013-09-13 10:40:00,
2013-09-13 06:45:00,66.9,59.5,29.75,NNE,32,7.0,10.0,77,0.00,,---,0.00,VWS V14.01,2013-09-13 10:45:00,
2013-09-13 06:50:00,66.7,59.6,29.76,NNE,18,5.0,8.0,78,0.00,,---,0.00,VWS V14.01,2013-09-13 10:50:00,
2013-09-13 06:55:00,66.7,59.6,29.76,NNW,336,8.0,10.0,78,0.00,,---,0.00,VWS V14.01,2013-09-13 10:55:00,
2013-09-13 07:00:00,66.5,59.1,29.76,NNE,15,11.0,17.0,77,0.00,,---,0.00,VWS V14.01,2013-09-13 11:00:00,
2013-09-13 07:05:00,66.2,59.2,29.77,ENE,61,3.0,10.0,78,0.00,,---,0.00,VWS V14.01,2013-09-13 11:05:00,
2013-09-13 07:10:00,66.0,58.6,29.77,NNE,20,4.0,17.0,77,0.00,,---,0.00,VWS V14.01,2013-09-13 11:10:00,
2013-09-13 07:15:00,65.9,58.9,29.77,NNE,15,10.0,10.0,78,0.00,,---,0.00,VWS V14.01,2013-09-13 11:15:00,
2013-09-13 07:20:00,65.7,58.3,29.77,NNW,346,9.0,14.0,77,0.00,,---,0.00,VWS V14.01,2013-09-13 11:20:00,
2013-09-13 07:25:00,65.7,57.9,29.77,North,355,11.0,17.0,76,0.00,,---,0.00,VWS V14.01,2013-09-13 11:25:00,
2013-09-13 07:30:00,65.7,57.9,29.77,NNE,19,7.0,14.0,76,0.00,,---,0.00,VWS V14.01,2013-09-13 11:30:00,
2013-09-13 07:35:00,65.5,57.4,29.78,North,5,9.0,13.0,75,0.00,,---,0.00,VWS V14.01,2013-09-13 11:35:00,
2013-09-13 07:40:00,65.5,57.0,29.78,NNW,331,10.0,17.0,74,0.00,,---,0.00,VWS V14.01,2013-09-13 11:40:00,
2013-09-13 07:45:00,65.5,57.0,29.78,NW,321,6.0,15.0,74,0.00,,---,0.00,VWS V14.01,2013-09-13 11:45:00,
2013-09-13 07:50:00,65.4,56.9,29.77,NW,309,3.0,8.0,74,0.00,,---,0.00,VWS V14.01,2013-09-13 11:50:00,
2013-09-13 07:55:00,65.4,56.5,29.77,SSW,207,3.0,9.0,73,0.00,,---,0.00,VWS V14.01,2013-09-13 11:55:00,
2013-09-13 08:00:00,65.2,57.1,29.77,SSE,161,4.0,10.0,75,0.00,,---,0.00,VWS V14.01,2013-09-13 12:00:00,
2013-09-13 08:05:00,65.2,57.1,29.78,SSE,155,4.0,6.0,75,0.00,,---,0.00,VWS V14.01,2013-09-13 12:05:00,
2013-09-13 08:10:00,65.1,57.0,29.78,SSE,164,0.0,3.0,75,0.00,,---,0.00,VWS V14.01,2013-09-13 12:10:00,
2013-09-13 08:15:00,65.1,57.0,29.78,SSE,154,1.0,3.0,75,0.00,,---,0.00,VWS V14.01,2013-09-13 12:15:00,
2013-09-13 08:20:00,65.1,57.0,29.78,West,274,2.0,5.0,75,0.00,,---,0.00,VWS V14.01,2013-09-13 12:20:00,
2013-09-13 08:25:00,65.1,56.6,29.78,NNW,338,7.0,9.0,74,0.00,,---,0.00,VWS V14.01,2013-09-13 12:25:00,
2013-09-13 08:30:00,65.1,56.6,29.78,NNW,333,3.0,3.0,74,0.00,,---,0.00,VWS V14.01,2013-09-13 12:30:00,
2013-09-13 08:35:00,65.1,57.0,29.79,NNW,329,2.0,5.0,75,0.00,,---,0.00,VWS V14.01,2013-09-13 12:35:00,
2013-09-13 08:40:00,65.2,57.5,29.79,NNW,329,0.0,3.0,76,0.00,,---,0.00,VWS V14.01,2013-09-13 12:40:00,
2013-09-13 08:45:00,65.2,57.1,29.79,NNE,17,4.0,11.0,75,0.00,,---,0.00,VWS V14.01,2013-09-13 12:45:00,
2013-09-13 08:50:00,65.4,57.3,29.79,NW,310,3.0,9.0,75,0.00,,---,0.00,VWS V14.01,2013-09-13 12:50:00,
2013-09-13 08:55:00,65.5,57.0,29.79,NW,311,4.0,7.0,74,0.00,,---,0.00,VWS V14.01,2013-09-13 12:55:00,
2013-09-13 09:00:00,65.9,57.8,29.79,NW,313,1.0,7.0,75,0.00,,---,0.00,VWS V14.01,2013-09-13 13:00:00,
2013-09-13 09:05:00,66.2,58.0,29.79,NNW,337,2.0,7.0,75,0.00,,---,0.00,VWS V14.01,2013-09-13 13:05:00,
2013-09-13 09:10:00,66.7,57.8,29.79,WNW,295,7.0,13.0,73,0.00,,---,0.00,VWS V14.01,2013-09-13 13:10:00,
2013-09-13 09:15:00,66.9,58.3,29.79,West,273,2.0,6.0,74,0.00,,---,0.00,VWS V14.01,2013-09-13 13:15:00,
2013-09-13 09:20:00,66.9,58.0,29.80,NW,319,3.0,10.0,73,0.00,,---,0.00,VWS V14.01,2013-09-13 13:20:00,
2013-09-13 09:25:00,67.0,57.7,29.80,NW,317,7.0,9.0,72,0.00,,---,0.00,VWS V14.01,2013-09-13 13:25:00,
2013-09-13 09:30:00,67.4,59.2,29.80,NNE,16,5.0,6.0,75,0.00,,---,0.00,VWS V14.01,2013-09-13 13:30:00,
2013-09-13 09:35:00,67.5,58.2,29.80,North,355,3.0,4.0,72,0.00,,---,0.00,VWS V14.01,2013-09-13 13:35:00,
2013-09-13 09:40:00,67.9,58.2,29.80,ENE,65,0.0,4.0,71,0.00,,---,0.00,VWS V14.01,2013-09-13 13:40:00,
2013-09-13 09:45:00,68.4,58.2,29.80,NNE,24,3.0,6.0,70,0.00,,---,0.00,VWS V14.01,2013-09-13 13:45:00,
2013-09-13 09:50:00,68.7,57.7,29.80,North,5,2.0,6.0,68,0.00,,---,0.00,VWS V14.01,2013-09-13 13:50:00,
2013-09-13 09:55:00,68.9,57.5,29.80,NNE,30,5.0,6.0,67,0.00,,---,0.00,VWS V14.01,2013-09-13 13:55:00,
2013-09-13 10:00:00,69.2,58.6,29.80,NNE,30,0.0,1.0,69,0.00,,---,0.00,VWS V14.01,2013-09-13 14:00:00,
2013-09-13 10:05:00,69.9,58.5,29.80,NNE,28,6.0,6.0,67,0.00,,---,0.00,VWS V14.01,2013-09-13 14:05:00,
2013-09-13 10:10:00,69.9,57.6,29.80,NNE,30,3.0,13.0,65,0.00,,---,0.00,VWS V14.01,2013-09-13 14:10:00,
2013-09-13 10:14:00,69.7,57.4,29.80,NNE,20,3.0,6.0,65,0.00,,---,0.00,VWS V14.01,2013-09-13 14:14:00,
2013-09-13 10:15:00,66.9,58.3,29.80,NNW,340,6.0,9.0,74,0.00,,---,0.00,VWS V14.01,2013-09-13 14:15:00,
2013-09-13 10:19:00,69.9,57.6,29.81,WNW,288,2.0,7.0,65,0.00,,---,0.00,VWS V14.01,2013-09-13 14:19:00,
2013-09-13 10:20:00,67.0,58.5,29.80,NW,311,5.0,10.0,74,0.00,,---,0.00,VWS V14.01,2013-09-13 14:20:00,
2013-09-13 10:24:00,70.2,57.9,29.81,WSW,250,5.0,9.0,65,0.00,,---,0.00,VWS V14.01,2013-09-13 14:24:00,
2013-09-13 10:25:00,67.2,57.9,29.80,NW,304,0.0,9.0,72,0.00,,---,0.00,VWS V14.01,2013-09-13 14:25:00,
2013-09-13 10:29:00,70.7,58.4,29.81,West,260,6.0,8.0,65,0.00,,---,0.00,VWS V14.01,2013-09-13 14:29:00,
2013-09-13 10:30:00,67.4,58.5,29.80,NNE,30,4.0,6.0,73,0.00,,---,0.00,VWS V14.01,2013-09-13 14:30:00,
2013-09-13 10:34:00,70.9,57.2,29.81,NW,321,3.0,6.0,62,0.00,,---,0.00,VWS V14.01,2013-09-13 14:34:00,
2013-09-13 10:35:00,67.7,58.4,29.80,North,355,2.0,4.0,72,0.00,,---,0.00,VWS V14.01,2013-09-13 14:35:00,
2013-09-13 10:39:00,71.2,57.5,29.81,WNW,283,1.0,7.0,62,0.00,,---,0.00,VWS V14.01,2013-09-13 14:39:00,
2013-09-13 10:40:00,68.0,58.3,29.80,ENE,65,2.0,4.0,71,0.00,,---,0.00,VWS V14.01,2013-09-13 14:40:00,
2013-09-13 10:44:00,71.6,57.0,29.81,NE,43,6.0,13.0,60,0.00,,---,0.00,VWS V14.01,2013-09-13 14:44:00,
2013-09-13 10:45:00,68.5,59.1,29.80,NW,323,3.0,7.0,72,0.00,,---,0.00,VWS V14.01,2013-09-13 14:45:00,
2013-09-13 10:49:00,71.6,57.0,29.81,NW,314,1.0,9.0,60,0.00,,---,0.00,VWS V14.01,2013-09-13 14:49:00,
2013-09-13 10:50:00,68.7,58.5,29.80,NNE,30,4.0,6.0,70,0.00,,---,0.00,VWS V14.01,2013-09-13 14:50:00,
2013-09-13 10:54:00,71.8,57.6,29.81,NNE,17,2.0,7.0,61,0.00,,---,0.00,VWS V14.01,2013-09-13 14:54:00,
2013-09-13 10:55:00,68.9,57.9,29.80,NNE,30,0.0,6.0,68,0.00,,---,0.00,VWS V14.01,2013-09-13 14:55:00,
2013-09-13 10:59:00,71.8,57.6,29.81,North,5,1.0,6.0,61,0.00,,---,0.00,VWS V14.01,2013-09-13 14:59:00,
2013-09-13 11:00:00,69.5,58.9,29.80,SW,233,4.0,6.0,69,0.00,,---,0.00,VWS V14.01,2013-09-13 15:00:00,
2013-09-13 11:04:00,72.1,57.9,29.81,NNE,32,6.0,6.0,61,0.00,,---,0.00,VWS V14.01,2013-09-13 15:04:00,
2013-09-13 11:05:00,70.0,58.1,29.80,NNE,30,5.0,8.0,66,0.00,,---,0.00,VWS V14.01,2013-09-13 15:05:00,
2013-09-13 11:09:00,72.3,57.2,29.81,North,5,4.0,7.0,59,0.00,,---,0.00,VWS V14.01,2013-09-13 15:09:00,
2013-09-13 11:10:00,69.9,57.2,29.80,NE,55,3.0,13.0,64,0.00,,---,0.00,VWS V14.01,2013-09-13 15:10:00,
2013-09-13 11:14:00,72.3,56.7,29.81,NW,306,5.0,11.0,58,0.00,,---,0.00,VWS V14.01,2013-09-13 15:14:00,
2013-09-13 11:15:00,69.9,57.2,29.81,North,11,7.0,7.0,64,0.00,,---,0.00,VWS V14.01,2013-09-13 15:15:00,
2013-09-13 11:19:00,72.3,56.7,29.82,NE,38,6.0,11.0,58,0.00,,---,0.00,VWS V14.01,2013-09-13 15:19:00,
2013-09-13 11:20:00,70.0,57.7,29.81,WNW,290,0.0,7.0,65,0.00,,---,0.00,VWS V14.01,2013-09-13 15:20:00,
2013-09-13 11:24:00,72.1,56.5,29.82,NNW,344,1.0,14.0,58,0.00,,---,0.00,VWS V14.01,2013-09-13 15:24:00,
2013-09-13 11:25:00,70.4,58.1,29.81,SW,225,5.0,9.0,65,0.00,,---,0.00,VWS V14.01,2013-09-13 15:25:00,
2013-09-13 11:29:00,72.4,58.7,29.82,North,5,7.0,9.0,62,0.00,,---,0.00,VWS V14.01,2013-09-13 15:29:00,
2013-09-13 11:30:00,70.7,57.9,29.81,NNW,333,0.0,8.0,64,0.00,,---,0.00,VWS V14.01,2013-09-13 15:30:00,
2013-09-13 11:34:00,72.1,57.0,29.82,North,5,6.0,10.0,59,0.00,,---,0.00,VWS V14.01,2013-09-13 15:34:00,
2013-09-13 11:35:00,71.1,57.4,29.81,NW,313,3.0,6.0,62,0.00,,---,0.00,VWS V14.01,2013-09-13 15:35:00,
2013-09-13 11:39:00,71.8,57.2,29.82,North,360,5.0,9.0,60,0.00,,---,0.00,VWS V14.01,2013-09-13 15:39:00,
2013-09-13 11:40:00,71.4,57.3,29.81,NE,50,2.0,7.0,61,0.00,,---,0.00,VWS V14.01,2013-09-13 15:40:00,
2013-09-13 11:44:00,72.1,60.1,29.82,NNE,22,0.0,7.0,66,0.00,,---,0.00,VWS V14.01,2013-09-13 15:44:00,
2013-09-13 11:45:00,71.4,56.3,29.81,NNE,16,0.0,13.0,59,0.00,,---,0.00,VWS V14.01,2013-09-13 15:45:00,
2013-09-13 11:49:00,72.4,56.3,29.82,NE,42,2.0,9.0,57,0.00,,---,0.00,VWS V14.01,2013-09-13 15:49:00,
2013-09-13 11:50:00,71.6,57.0,29.81,NNE,12,5.0,9.0,60,0.00,,---,0.00,VWS V14.01,2013-09-13 15:50:00,
2013-09-13 11:54:00,72.8,55.7,29.82,NNE,24,10.0,18.0,55,0.00,,---,0.00,VWS V14.01,2013-09-13 15:54:00,
2013-09-13 11:55:00,71.8,57.2,29.81,NW,304,3.0,8.0,60,0.00,,---,0.00,VWS V14.01,2013-09-13 15:55:00,
2013-09-13 11:59:00,72.6,55.5,29.82,North,11,7.0,11.0,55,0.00,,---,0.00,VWS V14.01,2013-09-13 15:59:00,
2013-09-13 12:00:00,71.9,57.3,29.81,NW,324,6.0,6.0,60,0.00,,---,0.00,VWS V14.01,2013-09-13 16:00:00,
2013-09-13 12:04:00,72.6,56.5,29.82,North,5,4.0,7.0,57,0.00,,---,0.00,VWS V14.01,2013-09-13 16:04:00,
2013-09-13 12:05:00,72.1,57.0,29.81,North,355,0.0,6.0,59,0.00,,---,0.00,VWS V14.01,2013-09-13 16:05:00,
2013-09-13 12:09:00,72.8,56.2,29.82,NNE,25,4.0,10.0,56,0.00,,---,0.00,VWS V14.01,2013-09-13 16:09:00,
2013-09-13 12:10:00,72.3,56.7,29.81,NNW,340,5.0,7.0,58,0.00,,---,0.00,VWS V14.01,2013-09-13 16:10:00,
2013-09-13 12:14:00,72.8,56.7,29.82,East,83,5.0,9.0,57,0.00,,---,0.00,VWS V14.01,2013-09-13 16:14:00,
2013-09-13 12:15:00,72.3,56.2,29.82,WSW,255,9.0,11.0,57,0.00,,---,0.00,VWS V14.01,2013-09-13 16:15:00,
2013-09-13 12:19:00,72.8,54.7,29.82,NE,36,5.0,7.0,53,0.00,,---,0.00,VWS V14.01,2013-09-13 16:19:00,
2013-09-13 12:20:00,72.3,57.2,29.82,NNE,25,3.0,11.0,59,0.00,,---,0.00,VWS V14.01,2013-09-13 16:20:00,
2013-09-13 12:24:00,72.6,55.0,29.82,NE,53,13.0,13.0,54,0.00,,---,0.00,VWS V14.01,2013-09-13 16:24:00,
2013-09-13 12:25:00,72.3,57.2,29.82,NW,325,4.0,14.0,59,0.00,,---,0.00,VWS V14.01,2013-09-13 16:25:00,
2013-09-13 12:29:00,72.3,56.2,29.82,NNW,346,3.0,12.0,57,0.00,,---,0.00,VWS V14.01,2013-09-13 16:29:00,
2013-09-13 12:30:00,72.3,56.7,29.82,NNE,17,6.0,14.0,58,0.00,,---,0.00,VWS V14.01,2013-09-13 16:30:00,
2013-09-13 12:34:00,72.6,57.9,29.81,WNW,300,2.0,10.0,60,0.00,,---,0.00,VWS V14.01,2013-09-13 16:34:00,
2013-09-13 12:35:00,71.9,56.8,29.82,East,82,2.0,10.0,59,0.00,,---,0.00,VWS V14.01,2013-09-13 16:35:00,
2013-09-13 12:39:00,73.1,55.0,29.81,NNW,336,6.0,9.0,53,0.00,,---,0.00,VWS V14.01,2013-09-13 16:39:00,
2013-09-13 12:40:00,71.8,57.2,29.82,North,355,0.0,9.0,60,0.00,,---,0.00,VWS V14.01,2013-09-13 16:40:00,
2013-09-13 12:44:00,73.5,55.3,29.81,North,5,9.0,12.0,53,0.00,,---,0.00,VWS V14.01,2013-09-13 16:44:00,
2013-09-13 12:45:00,72.3,56.7,29.82,ENE,66,7.0,7.0,58,0.00,,---,0.00,VWS V14.01,2013-09-13 16:45:00,
2013-09-13 12:49:00,73.1,53.9,29.81,NE,44,8.0,17.0,51,0.00,,---,0.00,VWS V14.01,2013-09-13 16:49:00,
2013-09-13 12:50:00,72.6,56.5,29.82,NE,38,3.0,9.0,57,0.00,,---,0.00,VWS V14.01,2013-09-13 16:50:00,
2013-09-13 12:54:00,72.8,54.7,29.81,WNW,284,2.0,12.0,53,0.00,,---,0.00,VWS V14.01,2013-09-13 16:54:00,
2013-09-13 12:55:00,72.8,55.7,29.82,NNW,341,5.0,20.0,55,0.00,,---,0.00,VWS V14.01,2013-09-13 16:55:00,
2013-09-13 12:59:00,73.1,54.5,29.81,NNW,345,4.0,8.0,52,0.00,,---,0.00,VWS V14.01,2013-09-13 16:59:00,
2013-09-13 13:00:00,72.6,56.0,29.82,North,355,5.0,14.0,56,0.00,,---,0.00,VWS V14.01,2013-09-13 17:00:00,
2013-09-13 13:04:00,73.5,53.7,29.81,North,355,3.0,6.0,50,0.00,,---,0.00,VWS V14.01,2013-09-13 17:04:00,
2013-09-13 13:05:00,72.8,56.7,29.82,NNW,338,8.0,13.0,57,0.00,,---,0.00,VWS V14.01,2013-09-13 17:05:00,
2013-09-13 13:09:00,73.7,56.5,29.81,NNE,25,4.0,4.0,55,0.00,,---,0.00,VWS V14.01,2013-09-13 17:09:00,
2013-09-13 13:10:00,72.8,56.7,29.82,NW,322,5.0,10.0,57,0.00,,---,0.00,VWS V14.01,2013-09-13 17:10:00,
2013-09-13 13:14:00,74.2,55.5,29.81,NNE,12,6.0,10.0,52,0.00,,---,0.00,VWS V14.01,2013-09-13 17:14:00,
2013-09-13 13:15:00,72.8,55.2,29.82,NW,322,4.0,9.0,54,0.00,,---,0.00,VWS V14.01,2013-09-13 17:15:00,
2013-09-13 13:19:00,74.0,55.8,29.81,North,355,3.0,15.0,53,0.00,,---,0.00,VWS V14.01,2013-09-13 17:19:00,
2013-09-13 13:20:00,72.8,55.7,29.82,ENE,78,10.0,15.0,55,0.00,,---,0.00,VWS V14.01,2013-09-13 17:20:00,
2013-09-13 13:24:00,74.0,54.2,29.81,NW,313,3.0,12.0,50,0.00,,---,0.00,VWS V14.01,2013-09-13 17:24:00,
2013-09-13 13:25:00,72.3,55.2,29.82,NE,34,12.0,13.0,55,0.00,,---,0.00,VWS V14.01,2013-09-13 17:25:00,
2013-09-13 13:29:00,74.0,54.7,29.81,NNW,344,6.0,13.0,51,0.00,,---,0.00,VWS V14.01,2013-09-13 17:29:00,
2013-09-13 13:30:00,72.3,57.7,29.81,WSW,241,6.0,12.0,60,0.00,,---,0.00,VWS V14.01,2013-09-13 17:30:00,
2013-09-13 13:34:00,74.0,56.3,29.81,NW,320,3.0,10.0,54,0.00,,---,0.00,VWS V14.01,2013-09-13 17:34:00,
2013-09-13 13:35:00,73.0,55.9,29.81,WNW,296,2.0,11.0,55,0.00,,---,0.00,VWS V14.01,2013-09-13 17:35:00,
2013-09-13 13:39:00,74.0,55.8,29.81,NE,38,6.0,11.0,53,0.00,,---,0.00,VWS V14.01,2013-09-13 17:39:00,
2013-09-13 13:40:00,73.3,56.2,29.81,NNE,28,4.0,9.0,55,0.00,,---,0.00,VWS V14.01,2013-09-13 17:40:00,
2013-09-13 13:44:00,74.0,53.1,29.81,NNE,15,6.0,14.0,48,0.00,,---,0.00,VWS V14.01,2013-09-13 17:44:00,
2013-09-13 13:45:00,73.5,54.8,29.81,NNE,30,17.0,17.0,52,0.00,,---,0.00,VWS V14.01,2013-09-13 17:45:00,
2013-09-13 13:49:00,74.0,54.2,29.81,NNE,22,6.0,16.0,50,0.00,,---,0.00,VWS V14.01,2013-09-13 17:49:00,
2013-09-13 13:50:00,73.0,53.8,29.81,NNE,29,7.0,17.0,51,0.00,,---,0.00,VWS V14.01,2013-09-13 17:50:00,
2013-09-13 13:54:00,74.4,52.9,29.81,SW,227,8.0,10.0,47,0.00,,---,0.00,VWS V14.01,2013-09-13 17:54:00,
2013-09-13 13:55:00,73.0,54.9,29.81,North,5,7.0,12.0,53,0.00,,---,0.00,VWS V14.01,2013-09-13 17:55:00,
2013-09-13 13:59:00,74.2,50.9,29.81,NW,307,7.0,18.0,44,0.00,,---,0.00,VWS V14.01,2013-09-13 17:59:00,
2013-09-13 14:00:00,73.3,55.2,29.81,NNW,346,6.0,8.0,53,0.00,,---,0.00,VWS V14.01,2013-09-13 18:00:00,
2013-09-13 14:04:00,74.2,53.3,29.81,NNW,331,7.0,16.0,48,0.00,,---,0.00,VWS V14.01,2013-09-13 18:04:00,
2013-09-13 14:05:00,73.5,54.8,29.81,NNE,24,3.0,6.0,52,0.00,,---,0.00,VWS V14.01,2013-09-13 18:05:00,
2013-09-13 14:09:00,74.0,52.5,29.81,North,355,6.0,16.0,47,0.00,,---,0.00,VWS V14.01,2013-09-13 18:09:00,
2013-09-13 14:10:00,73.8,56.6,29.81,NE,46,2.0,7.0,55,0.00,,---,0.00,VWS V14.01,2013-09-13 18:10:00,
2013-09-13 14:14:00,73.8,51.2,29.81,WNW,301,6.0,13.0,45,0.00,,---,0.00,VWS V14.01,2013-09-13 18:14:00,
2013-09-13 14:15:00,74.2,54.4,29.81,NNE,23,13.0,17.0,50,0.00,,---,0.00,VWS V14.01,2013-09-13 18:15:00,
2013-09-13 14:19:00,73.7,51.1,29.81,NNW,333,5.0,14.0,45,0.00,,---,0.00,VWS V14.01,2013-09-13 18:19:00,
2013-09-13 14:20:00,74.0,54.2,29.81,WSW,248,10.0,18.0,50,0.00,,---,0.00,VWS V14.01,2013-09-13 18:20:00,
2013-09-13 14:24:00,73.5,52.6,29.81,NW,323,5.0,10.0,48,0.00,,---,0.00,VWS V14.01,2013-09-13 18:24:00,
2013-09-13 14:25:00,74.2,54.4,29.81,NW,319,13.0,13.0,50,0.00,,---,0.00,VWS V14.01,2013-09-13 18:25:00,
2013-09-13 14:29:00,73.7,51.7,29.81,West,265,6.0,12.0,46,0.00,,---,0.00,VWS V14.01,2013-09-13 18:29:00,
2013-09-13 14:30:00,74.0,55.3,29.81,NW,316,9.0,18.0,52,0.00,,---,0.00,VWS V14.01,2013-09-13 18:30:00,
2013-09-13 14:34:00,73.8,53.5,29.81,WNW,284,10.0,11.0,49,0.00,,---,0.00,VWS V14.01,2013-09-13 18:34:00,
2013-09-13 14:35:00,73.8,54.0,29.81,WNW,295,11.0,11.0,50,0.00,,---,0.00,VWS V14.01,2013-09-13 18:35:00,
2013-09-13 14:39:00,74.2,53.3,29.81,NNW,327,6.0,10.0,48,0.00,,---,0.00,VWS V14.01,2013-09-13 18:39:00,
2013-09-13 14:40:00,74.0,53.7,29.81,North,355,1.0,11.0,49,0.00,,---,0.00,VWS V14.01,2013-09-13 18:40:00,
2013-09-13 14:44:00,74.5,55.7,29.81,NNW,346,5.0,5.0,52,0.00,,---,0.00,VWS V14.01,2013-09-13 18:44:00,
2013-09-13 14:45:00,74.2,54.9,29.81,North,355,3.0,14.0,51,0.00,,---,0.00,VWS V14.01,2013-09-13 18:45:00,
2013-09-13 14:49:00,74.7,53.2,29.80,NW,306,3.0,12.0,47,0.00,,---,0.00,VWS V14.01,2013-09-13 18:49:00,
2013-09-13 14:50:00,74.2,53.8,29.81,West,265,7.0,16.0,49,0.00,,---,0.00,VWS V14.01,2013-09-13 18:50:00,
2013-09-13 14:54:00,74.9,54.5,29.80,West,270,3.0,15.0,49,0.00,,---,0.00,VWS V14.01,2013-09-13 18:54:00,
2013-09-13 14:55:00,74.4,51.7,29.81,NNW,327,13.0,15.0,45,0.00,,---,0.00,VWS V14.01,2013-09-13 18:55:00,
2013-09-13 14:59:00,74.9,53.9,29.80,NNW,336,13.0,13.0,48,0.00,,---,0.00,VWS V14.01,2013-09-13 18:59:00,
2013-09-13 15:00:00,74.0,51.9,29.81,NW,323,3.0,18.0,46,0.00,,---,0.00,VWS V14.01,2013-09-13 19:00:00,
2013-09-13 15:04:00,74.2,52.1,29.79,North,10,6.0,11.0,46,0.00,,---,0.00,VWS V14.01,2013-09-13 19:04:00,
2013-09-13 15:05:00,74.2,52.7,29.81,NNW,342,16.0,19.0,47,0.00,,---,0.00,VWS V14.01,2013-09-13 19:05:00,
2013-09-13 15:09:00,73.8,51.2,29.79,NNE,19,9.0,15.0,45,0.00,,---,0.00,VWS V14.01,2013-09-13 19:09:00,
2013-09-13 15:10:00,74.0,50.7,29.81,WNW,297,7.0,16.0,44,0.00,,---,0.00,VWS V14.01,2013-09-13 19:10:00,
2013-09-13 15:14:00,73.5,50.9,29.79,NNE,26,7.0,13.0,45,0.00,,---,0.00,VWS V14.01,2013-09-13 19:14:00,
2013-09-13 15:15:00,73.7,51.7,29.81,North,350,10.0,13.0,46,0.00,,---,0.00,VWS V14.01,2013-09-13 19:15:00,
2013-09-13 15:19:00,73.7,51.7,29.79,NW,314,3.0,10.0,46,0.00,,---,0.00,VWS V14.01,2013-09-13 19:19:00,
2013-09-13 15:20:00,73.7,51.7,29.81,West,271,1.0,14.0,46,0.00,,---,0.00,VWS V14.01,2013-09-13 19:20:00,
2013-09-13 15:24:00,73.8,51.8,29.79,NNE,24,7.0,11.0,46,0.00,,---,0.00,VWS V14.01,2013-09-13 19:24:00,
2013-09-13 15:25:00,73.5,50.9,29.81,WNW,282,3.0,13.0,45,0.00,,---,0.00,VWS V14.01,2013-09-13 19:25:00,
2013-09-13 15:29:00,73.7,50.5,29.79,North,360,0.0,11.0,44,0.00,,---,0.00,VWS V14.01,2013-09-13 19:29:00,
2013-09-13 15:30:00,73.7,52.2,29.81,NNW,335,5.0,14.0,47,0.00,,---,0.00,VWS V14.01,2013-09-13 19:30:00,
2013-09-13 15:34:00,73.8,51.2,29.79,WNW,289,5.0,10.0,45,0.00,,---,0.00,VWS V14.01,2013-09-13 19:34:00,
2013-09-13 15:35:00,74.0,54.2,29.81,WSW,247,6.0,11.0,50,0.00,,---,0.00,VWS V14.01,2013-09-13 19:35:00,
2013-09-13 15:39:00,74.0,51.9,29.79,NNE,22,9.0,13.0,46,0.00,,---,0.00,VWS V14.01,2013-09-13 19:39:00,
2013-09-13 15:40:00,74.2,54.4,29.81,WNW,300,2.0,13.0,50,0.00,,---,0.00,VWS V14.01,2013-09-13 19:40:00,
2013-09-13 15:44:00,74.2,50.9,29.79,NNW,346,2.0,10.0,44,0.00,,---,0.00,VWS V14.01,2013-09-13 19:44:00,
2013-09-13 15:45:00,74.7,54.8,29.80,NNW,339,6.0,10.0,50,0.00,,---,0.00,VWS V14.01,2013-09-13 19:45:00,
2013-09-13 15:48:00,74.2,49.7,29.79,NNW,340,3.0,16.0,42,0.00,,---,0.00,VWS V14.01,2013-09-13 19:48:00,
2013-09-13 15:50:00,74.9,55.6,29.80,NW,323,9.0,12.0,51,0.00,,---,0.00,VWS V14.01,2013-09-13 19:50:00,
2013-09-13 15:53:00,74.2,51.5,29.79,North,350,6.0,14.0,45,0.00,,---,0.00,VWS V14.01,2013-09-13 19:53:00,
2013-09-13 15:55:00,75.1,52.3,29.80,WNW,292,1.0,15.0,45,0.00,,---,0.00,VWS V14.01,2013-09-13 19:55:00,
2013-09-13 15:58:00,74.2,51.5,29.79,NW,323,3.0,13.0,45,0.00,,---,0.00,VWS V14.01,2013-09-13 19:58:00,
2013-09-13 16:00:00,74.5,53.5,29.79,NNW,346,10.0,15.0,48,0.00,,---,0.00,VWS V14.01,2013-09-13 20:00:00,
2013-09-13 16:03:00,74.2,51.5,29.80,WNW,292,1.0,4.0,45,0.00,,---,0.00,VWS V14.01,2013-09-13 20:03:00,
2013-09-13 16:05:00,73.8,51.2,29.79,North,351,3.0,11.0,45,0.00,,---,0.00,VWS V14.01,2013-09-13 20:05:00,
2013-09-13 16:08:00,74.4,49.8,29.80,WNW,300,1.0,10.0,42,0.00,,---,0.00,VWS V14.01,2013-09-13 20:08:00,
2013-09-13 16:10:00,73.7,51.1,29.79,North,355,6.0,15.0,45,0.00,,---,0.00,VWS V14.01,2013-09-13 20:10:00,
2013-09-13 16:13:00,74.4,49.8,29.80,NNW,330,6.0,19.0,42,0.00,,---,0.00,VWS V14.01,2013-09-13 20:13:00,
2013-09-13 16:15:00,73.7,51.7,29.79,North,9,8.0,13.0,46,0.00,,---,0.00,VWS V14.01,2013-09-13 20:15:00,
2013-09-13 16:18:00,74.4,52.3,29.80,West,261,7.0,7.0,46,0.00,,---,0.00,VWS V14.01,2013-09-13 20:18:00,
2013-09-13 16:20:00,73.7,50.5,29.79,West,269,9.0,13.0,44,0.00,,---,0.00,VWS V14.01,2013-09-13 20:20:00,
2013-09-13 16:23:00,74.4,50.5,29.80,NNW,327,9.0,13.0,43,0.00,,---,0.00,VWS V14.01,2013-09-13 20:23:00,
2013-09-13 16:25:00,73.7,51.1,29.79,North,5,4.0,17.0,45,0.00,,---,0.00,VWS V14.01,2013-09-13 20:25:00,
2013-09-13 16:28:00,74.0,51.3,29.80,NNW,329,4.0,6.0,45,0.00,,---,0.00,VWS V14.01,2013-09-13 20:28:00,
2013-09-13 16:30:00,73.7,50.5,29.79,WSW,257,6.0,15.0,44,0.00,,---,0.00,VWS V14.01,2013-09-13 20:30:00,
2013-09-13 16:33:00,73.8,51.2,29.79,West,278,5.0,15.0,45,0.00,,---,0.00,VWS V14.01,2013-09-13 20:33:00,
2013-09-13 16:35:00,73.8,50.5,29.79,NW,325,5.0,10.0,44,0.00,,---,0.00,VWS V14.01,2013-09-13 20:35:00,
2013-09-13 16:38:00,74.0,51.9,29.79,SW,216,4.0,7.0,46,0.00,,---,0.00,VWS V14.01,2013-09-13 20:38:00,
2013-09-13 16:40:00,74.0,50.7,29.79,NW,306,5.0,13.0,44,0.00,,---,0.00,VWS V14.01,2013-09-13 20:40:00,
2013-09-13 16:43:00,73.8,52.3,29.79,NW,319,15.0,15.0,47,0.00,,---,0.00,VWS V14.01,2013-09-13 20:43:00,
2013-09-13 16:45:00,74.2,49.7,29.79,West,271,2.0,14.0,42,0.00,,---,0.00,VWS V14.01,2013-09-13 20:45:00,
2013-09-13 16:48:00,73.5,49.7,29.80,WNW,286,7.0,13.0,43,0.00,,---,0.00,VWS V14.01,2013-09-13 20:48:00,
2013-09-13 16:50:00,74.2,50.3,29.79,West,262,7.0,16.0,43,0.00,,---,0.00,VWS V14.01,2013-09-13 20:50:00,
2013-09-13 16:53:00,73.1,51.7,29.80,North,9,7.0,12.0,47,0.00,,---,0.00,VWS V14.01,2013-09-13 20:53:00,
2013-09-13 16:55:00,74.2,50.9,29.79,NNW,336,4.0,14.0,44,0.00,,---,0.00,VWS V14.01,2013-09-13 20:55:00,
2013-09-13 16:58:00,73.0,50.4,29.80,NNE,15,1.0,11.0,45,0.00,,---,0.00,VWS V14.01,2013-09-13 20:58:00,
2013-09-13 17:00:00,74.2,50.3,29.80,NNW,337,2.0,13.0,43,0.00,,---,0.00,VWS V14.01,2013-09-13 21:00:00,
2013-09-13 17:03:00,73.0,50.4,29.80,NW,319,11.0,11.0,45,0.00,,---,0.00,VWS V14.01,2013-09-13 21:03:00,
2013-09-13 17:05:00,74.4,49.8,29.80,NW,325,3.0,15.0,42,0.00,,---,0.00,VWS V14.01,2013-09-13 21:05:00,
2013-09-13 17:08:00,73.1,52.3,29.80,NNE,30,1.0,3.0,48,0.00,,---,0.00,VWS V14.01,2013-09-13 21:08:00,
2013-09-13 17:10:00,74.4,50.5,29.80,WNW,285,12.0,15.0,43,0.00,,---,0.00,VWS V14.01,2013-09-13 21:10:00,
2013-09-13 17:13:00,72.8,50.2,29.80,North,360,6.0,12.0,45,0.00,,---,0.00,VWS V14.01,2013-09-13 21:13:00,
2013-09-13 17:15:00,74.4,50.5,29.80,NW,317,3.0,19.0,43,0.00,,---,0.00,VWS V14.01,2013-09-13 21:15:00,
2013-09-13 17:18:00,72.4,50.5,29.80,NW,307,2.0,12.0,46,0.00,,---,0.00,VWS V14.01,2013-09-13 21:18:00,
2013-09-13 17:20:00,74.5,51.8,29.80,NNE,15,3.0,8.0,45,0.00,,---,0.00,VWS V14.01,2013-09-13 21:20:00,
2013-09-13 17:23:00,72.6,50.7,29.80,WNW,303,5.0,8.0,46,0.00,,---,0.00,VWS V14.01,2013-09-13 21:23:00,
2013-09-13 17:25:00,74.0,50.7,29.80,NNW,328,6.0,14.0,44,0.00,,---,0.00,VWS V14.01,2013-09-13 21:25:00,
2013-09-13 17:28:00,72.6,50.7,29.80,WNW,294,5.0,14.0,46,0.00,,---,0.00,VWS V14.01,2013-09-13 21:28:00,
2013-09-13 17:30:00,73.8,51.2,29.79,WSW,242,15.0,17.0,45,0.00,,---,0.00,VWS V14.01,2013-09-13 21:30:00,
2013-09-13 17:33:00,72.6,50.1,29.80,NW,325,5.0,10.0,45,0.00,,---,0.00,VWS V14.01,2013-09-13 21:33:00,
2013-09-13 17:35:00,74.0,50.7,29.79,North,355,5.0,15.0,44,0.00,,---,0.00,VWS V14.01,2013-09-13 21:35:00,
2013-09-13 17:38:00,72.6,50.1,29.80,NNW,333,3.0,6.0,45,0.00,,---,0.00,VWS V14.01,2013-09-13 21:38:00,
2013-09-13 17:40:00,74.0,49.5,29.79,South,171,9.0,15.0,42,0.00,,---,0.00,VWS V14.01,2013-09-13 21:40:00,
2013-09-13 17:43:00,72.6,50.1,29.80,NW,316,11.0,18.0,45,0.00,,---,0.00,VWS V14.01,2013-09-13 21:43:00,
2013-09-13 17:45:00,73.8,50.5,29.80,North,5,12.0,15.0,44,0.00,,---,0.00,VWS V14.01,2013-09-13 21:45:00,
2013-09-13 17:48:00,72.4,49.9,29.81,NW,322,7.0,12.0,45,0.00,,---,0.00,VWS V14.01,2013-09-13 21:48:00,
2013-09-13 17:50:00,73.3,51.3,29.80,North,360,6.0,13.0,46,0.00,,---,0.00,VWS V14.01,2013-09-13 21:50:00,
2013-09-13 17:53:00,72.1,50.8,29.81,NW,323,6.0,7.0,47,0.00,,---,0.00,VWS V14.01,2013-09-13 21:53:00,
2013-09-13 17:55:00,73.0,52.2,29.80,NNE,19,10.0,13.0,48,0.00,,---,0.00,VWS V14.01,2013-09-13 21:55:00,
2013-09-13 17:58:00,71.9,50.6,29.81,NNE,18,4.0,4.0,47,0.00,,---,0.00,VWS V14.01,2013-09-13 21:58:00,
2013-09-13 18:00:00,73.0,51.0,29.80,North,5,4.0,11.0,46,0.00,,---,0.00,VWS V14.01,2013-09-13 22:00:00,
2013-09-13 18:03:00,71.8,51.6,29.82,NW,307,5.0,11.0,49,0.00,,---,0.00,VWS V14.01,2013-09-13 22:03:00,
2013-09-13 18:05:00,73.0,51.0,29.80,NW,325,1.0,11.0,46,0.00,,---,0.00,VWS V14.01,2013-09-13 22:05:00,
2013-09-13 18:08:00,71.6,52.0,29.82,NW,306,9.0,12.0,50,0.00,,---,0.00,VWS V14.01,2013-09-13 22:08:00,
2013-09-13 18:10:00,73.1,50.5,29.80,North,5,12.0,17.0,45,0.00,,---,0.00,VWS V14.01,2013-09-13 22:10:00,
2013-09-13 18:13:00,71.2,50.5,29.82,NW,325,3.0,8.0,48,0.00,,---,0.00,VWS V14.01,2013-09-13 22:13:00,
2013-09-13 18:15:00,72.6,50.1,29.80,NW,321,3.0,12.0,45,0.00,,---,0.00,VWS V14.01,2013-09-13 22:15:00,
2013-09-13 18:18:00,70.6,50.0,29.82,NNW,335,4.0,6.0,48,0.00,,---,0.00,VWS V14.01,2013-09-13 22:18:00,
2013-09-13 18:20:00,72.4,49.9,29.80,WNW,292,4.0,14.0,45,0.00,,---,0.00,VWS V14.01,2013-09-13 22:20:00,
2013-09-13 18:23:00,70.2,50.2,29.82,North,11,3.0,10.0,49,0.00,,---,0.00,VWS V14.01,2013-09-13 22:23:00,
2013-09-13 18:25:00,72.6,50.1,29.80,WNW,300,11.0,12.0,45,0.00,,---,0.00,VWS V14.01,2013-09-13 22:25:00,
2013-09-13 18:28:00,69.9,50.4,29.82,North,355,6.0,11.0,50,0.00,,---,0.00,VWS V14.01,2013-09-13 22:28:00,
2013-09-13 18:30:00,72.6,50.1,29.80,WNW,298,4.0,14.0,45,0.00,,---,0.00,VWS V14.01,2013-09-13 22:30:00,
2013-09-13 18:33:00,69.5,51.1,29.83,WNW,302,2.0,4.0,52,0.00,,---,0.00,VWS V14.01,2013-09-13 22:33:00,
2013-09-13 18:35:00,72.6,50.1,29.80,North,360,5.0,10.0,45,0.00,,---,0.00,VWS V14.01,2013-09-13 22:35:00,
2013-09-13 18:38:00,69.2,51.9,29.83,WNW,302,0.0,1.0,54,0.00,,---,0.00,VWS V14.01,2013-09-13 22:38:00,
2013-09-13 18:40:00,72.6,50.1,29.80,NNW,339,6.0,7.0,45,0.00,,---,0.00,VWS V14.01,2013-09-13 22:40:00,
2013-09-13 18:43:00,69.0,52.2,29.83,North,5,0.0,0.0,55,0.00,,---,0.00,VWS V14.01,2013-09-13 22:43:00,
2013-09-13 18:45:00,72.4,49.9,29.81,NW,320,8.0,18.0,45,0.00,,---,0.00,VWS V14.01,2013-09-13 22:45:00,
2013-09-13 18:48:00,68.5,53.2,29.84,NNW,340,3.0,9.0,58,0.00,,---,0.00,VWS V14.01,2013-09-13 22:48:00,
2013-09-13 18:50:00,72.1,50.2,29.81,West,271,5.0,12.0,46,0.00,,---,0.00,VWS V14.01,2013-09-13 22:50:00,
2013-09-13 18:53:00,68.2,53.8,29.84,NNW,340,0.0,1.0,60,0.00,,---,0.00,VWS V14.01,2013-09-13 22:53:00,
2013-09-13 18:55:00,71.9,50.6,29.81,NNW,328,3.0,7.0,47,0.00,,---,0.00,VWS V14.01,2013-09-13 22:55:00,
2013-09-13 18:58:00,67.7,52.9,29.84,NNW,347,0.0,3.0,59,0.00,,---,0.00,VWS V14.01,2013-09-13 22:58:00,
2013-09-13 19:00:00,71.8,51.1,29.82,NNW,348,2.0,4.0,48,0.00,,---,0.00,VWS V14.01,2013-09-13 23:00:00,
2013-09-13 19:03:00,67.4,52.6,29.84,NNW,331,0.0,3.0,59,0.00,,---,0.00,VWS V14.01,2013-09-13 23:03:00,
2013-09-13 19:05:00,71.8,51.6,29.82,NW,321,2.0,11.0,49,0.00,,---,0.00,VWS V14.01,2013-09-13 23:05:00,
2013-09-13 19:08:00,66.9,53.0,29.84,North,349,0.0,4.0,61,0.00,,---,0.00,VWS V14.01,2013-09-13 23:08:00,
2013-09-13 19:10:00,71.4,50.7,29.82,NNW,335,5.0,14.0,48,0.00,,---,0.00,VWS V14.01,2013-09-13 23:10:00,
2013-09-13 19:13:00,66.4,52.6,29.84,North,360,2.0,3.0,61,0.00,,---,0.00,VWS V14.01,2013-09-13 23:13:00,
2013-09-13 19:15:00,70.7,50.1,29.82,North,355,6.0,17.0,48,0.00,,---,0.00,VWS V14.01,2013-09-13 23:15:00,
2013-09-13 19:18:00,65.9,52.5,29.84,NW,324,5.0,7.0,62,0.00,,---,0.00,VWS V14.01,2013-09-13 23:18:00,
2013-09-13 19:20:00,70.4,49.8,29.82,North,9,6.0,6.0,48,0.00,,---,0.00,VWS V14.01,2013-09-13 23:20:00,
2013-09-13 19:23:00,65.5,52.6,29.84,NNW,336,4.0,7.0,63,0.00,,---,0.00,VWS V14.01,2013-09-13 23:23:00,
2013-09-13 19:25:00,70.0,51.1,29.82,NW,325,5.0,10.0,51,0.00,,---,0.00,VWS V14.01,2013-09-13 23:25:00,
2013-09-13 19:28:00,65.4,52.1,29.84,North,351,2.0,9.0,62,0.00,,---,0.00,VWS V14.01,2013-09-13 23:28:00,
2013-09-13 19:30:00,69.5,51.1,29.83,WNW,301,3.0,11.0,52,0.00,,---,0.00,VWS V14.01,2013-09-13 23:30:00,
2013-09-13 19:33:00,65.2,52.3,29.85,North,5,5.0,6.0,63,0.00,,---,0.00,VWS V14.01,2013-09-13 23:33:00,
2013-09-13 19:35:00,69.2,51.4,29.83,WNW,302,0.0,4.0,53,0.00,,---,0.00,VWS V14.01,2013-09-13 23:35:00,
2013-09-13 19:38:00,65.1,52.6,29.85,NNW,346,3.0,3.0,64,0.00,,---,0.00,VWS V14.01,2013-09-13 23:38:00,
2013-09-13 19:40:00,69.0,52.2,29.83,North,5,0.0,2.0,55,0.00,,---,0.00,VWS V14.01,2013-09-13 23:40:00,
2013-09-13 19:43:00,64.7,52.3,29.85,North,355,13.0,13.0,64,0.00,,---,0.00,VWS V14.01,2013-09-13 23:43:00,
2013-09-13 19:45:00,68.7,51.9,29.84,North,9,5.0,6.0,55,0.00,,---,0.00,VWS V14.01,2013-09-13 23:45:00,
2013-09-13 19:48:00,64.7,51.8,29.86,WNW,299,4.0,9.0,63,0.00,,---,0.00,VWS V14.01,2013-09-13 23:48:00,
2013-09-13 19:50:00,68.4,52.6,29.84,NNW,340,0.0,9.0,57,0.00,,---,0.00,VWS V14.01,2013-09-13 23:50:00,
2013-09-13 19:53:00,64.7,51.8,29.86,NNW,343,6.0,9.0,63,0.00,,---,0.00,VWS V14.01,2013-09-13 23:53:00,
2013-09-13 19:55:00,67.9,52.6,29.84,NNW,347,2.0,9.0,58,0.00,,---,0.00,VWS V14.01,2013-09-13 23:55:00,
2013-09-13 19:58:00,64.9,51.6,29.86,North,5,12.0,14.0,62,0.00,,---,0.00,VWS V14.01,2013-09-13 23:58:00,
2013-09-13 20:00:00,67.5,53.1,29.84,NNW,331,2.0,7.0,60,0.00,,---,0.00,VWS V14.01,2013-09-14 00:00:00,
2013-09-13 20:03:00,64.9,51.2,29.87,NNE,18,11.0,14.0,61,0.00,,---,0.00,VWS V14.01,2013-09-14 00:03:00,
2013-09-13 20:05:00,67.0,53.1,29.84,NNW,335,2.0,4.0,61,0.00,,---,0.00,VWS V14.01,2013-09-14 00:05:00,
2013-09-13 20:08:00,64.9,51.2,29.87,NNW,327,7.0,15.0,61,0.00,,---,0.00,VWS V14.01,2013-09-14 00:08:00,
2013-09-13 20:10:00,66.5,52.7,29.84,North,5,3.0,6.0,61,0.00,,---,0.00,VWS V14.01,2013-09-14 00:10:00,
2013-09-13 20:13:00,64.7,51.4,29.87,NW,311,9.0,10.0,62,0.00,,---,0.00,VWS V14.01,2013-09-14 00:13:00,
2013-09-13 20:15:00,66.0,52.6,29.84,North,355,2.0,8.0,62,0.00,,---,0.00,VWS V14.01,2013-09-14 00:15:00,
2013-09-13 20:18:00,64.4,51.1,29.87,North,355,6.0,9.0,62,0.00,,---,0.00,VWS V14.01,2013-09-14 00:18:00,
2013-09-13 20:20:00,65.7,52.8,29.84,NNW,347,5.0,7.0,63,0.00,,---,0.00,VWS V14.01,2013-09-14 00:20:00,
2013-09-13 20:23:00,64.1,50.4,29.87,NNE,16,7.0,11.0,61,0.00,,---,0.00,VWS V14.01,2013-09-14 00:23:00,
2013-09-13 20:25:00,65.4,52.5,29.84,North,9,9.0,11.0,63,0.00,,---,0.00,VWS V14.01,2013-09-14 00:25:00,
2013-09-13 20:28:00,63.9,50.2,29.87,North,355,7.0,12.0,61,0.00,,---,0.00,VWS V14.01,2013-09-14 00:28:00,
2013-09-13 20:30:00,65.2,52.3,29.85,NNW,348,4.0,9.0,63,0.00,,---,0.00,VWS V14.01,2013-09-14 00:30:00,
2013-09-13 20:33:00,63.6,49.9,29.89,NNW,346,13.0,19.0,61,0.00,,---,0.00,VWS V14.01,2013-09-14 00:33:00,
2013-09-13 20:35:00,65.1,52.6,29.85,NNW,346,2.0,7.0,64,0.00,,---,0.00,VWS V14.01,2013-09-14 00:35:00,
2013-09-13 20:38:00,63.4,50.2,29.89,NNE,16,14.0,17.0,62,0.00,,---,0.00,VWS V14.01,2013-09-14 00:38:00,
2013-09-13 20:40:00,64.9,52.5,29.85,North,5,6.0,12.0,64,0.00,,---,0.00,VWS V14.01,2013-09-14 00:40:00,
2013-09-13 20:43:00,63.3,50.1,29.89,NNW,343,9.0,14.0,62,0.00,,---,0.00,VWS V14.01,2013-09-14 00:43:00,
2013-09-13 20:45:00,64.7,51.8,29.86,North,351,4.0,13.0,63,0.00,,---,0.00,VWS V14.01,2013-09-14 00:45:00,
2013-09-13 20:48:00,63.1,50.3,29.89,North,5,6.0,19.0,63,0.00,,---,0.00,VWS V14.01,2013-09-14 00:48:00,
2013-09-13 20:50:00,64.7,51.8,29.86,North,9,3.0,12.0,63,0.00,,---,0.00,VWS V14.01,2013-09-14 00:50:00,
2013-09-13 20:53:00,63.0,50.2,29.89,North,5,9.0,18.0,63,0.00,,---,0.00,VWS V14.01,2013-09-14 00:53:00,
2013-09-13 20:55:00,64.9,51.6,29.86,NE,46,10.0,10.0,62,0.00,,---,0.00,VWS V14.01,2013-09-14 00:55:00,
2013-09-13 20:58:00,62.8,50.0,29.89,North,9,9.0,13.0,63,0.00,,---,0.00,VWS V14.01,2013-09-14 00:58:00,
2013-09-13 21:00:00,64.9,51.2,29.87,NW,323,4.0,14.0,61,0.00,,---,0.00,VWS V14.01,2013-09-14 01:00:00,
2013-09-13 21:03:00,62.8,50.0,29.90,NE,56,4.0,17.0,63,0.00,,---,0.00,VWS V14.01,2013-09-14 01:03:00,
2013-09-13 21:05:00,64.9,51.2,29.87,North,355,7.0,15.0,61,0.00,,---,0.00,VWS V14.01,2013-09-14 01:05:00,
2013-09-13 21:08:00,62.6,49.8,29.90,NE,53,6.0,7.0,63,0.00,,---,0.00,VWS V14.01,2013-09-14 01:08:00,
2013-09-13 21:10:00,64.7,51.0,29.87,North,9,6.0,15.0,61,0.00,,---,0.00,VWS V14.01,2013-09-14 01:10:00,
2013-09-13 21:13:00,62.5,49.8,29.90,East,97,3.0,5.0,63,0.00,,---,0.00,VWS V14.01,2013-09-14 01:13:00,
2013-09-13 21:15:00,64.4,50.7,29.87,NE,40,4.0,13.0,61,0.00,,---,0.00,VWS V14.01,2013-09-14 01:15:00,
2013-09-13 21:18:00,62.3,50.0,29.90,NE,42,4.0,12.0,64,0.00,,---,0.00,VWS V14.01,2013-09-14 01:18:00,
2013-09-13 21:20:00,64.3,51.0,29.87,North,360,5.0,16.0,62,0.00,,---,0.00,VWS V14.01,2013-09-14 01:20:00,
2013-09-13 21:23:00,62.0,50.1,29.90,ENE,60,0.0,4.0,65,0.00,,---,0.00,VWS V14.01,2013-09-14 01:23:00,
2013-09-13 21:25:00,63.9,50.2,29.87,NNW,339,7.0,22.0,61,0.00,,---,0.00,VWS V14.01,2013-09-14 01:25:00,
2013-09-13 21:28:00,61.8,49.9,29.90,ESE,110,3.0,6.0,65,0.00,,---,0.00,VWS V14.01,2013-09-14 01:28:00,
2013-09-13 21:30:00,63.8,50.1,29.89,North,5,16.0,17.0,61,0.00,,---,0.00,VWS V14.01,2013-09-14 01:30:00,
2013-09-13 21:33:00,61.7,49.8,29.91,ESE,105,6.0,9.0,65,0.00,,---,0.00,VWS V14.01,2013-09-14 01:33:00,
2013-09-13 21:35:00,63.4,50.2,29.89,ENE,70,11.0,19.0,62,0.00,,---,0.00,VWS V14.01,2013-09-14 01:35:00,
2013-09-13 21:37:00,61.4,50.0,29.91,East,79,6.0,7.0,66,0.00,,---,0.00,VWS V14.01,2013-09-14 01:37:00,
2013-09-13 21:40:00,63.3,50.1,29.89,NNE,28,10.0,19.0,62,0.00,,---,0.00,VWS V14.01,2013-09-14 01:40:00,
2013-09-13 21:42:00,61.2,50.2,29.91,ESE,107,5.0,5.0,67,0.00,,---,0.00,VWS V14.01,2013-09-14 01:42:00,
2013-09-13 21:45:00,63.1,49.9,29.89,NNE,22,6.0,15.0,62,0.00,,---,0.00,VWS V14.01,2013-09-14 01:45:00,
2013-09-13 21:47:00,61.2,50.2,29.92,ESE,121,1.0,5.0,67,0.00,,---,0.00,VWS V14.01,2013-09-14 01:47:00,
2013-09-13 21:50:00,63.0,50.2,29.89,NNW,348,14.0,21.0,63,0.00,,---,0.00,VWS V14.01,2013-09-14 01:50:00,
2013-09-13 21:52:00,61.1,50.5,29.92,East,93,0.0,3.0,68,0.00,,---,0.00,VWS V14.01,2013-09-14 01:52:00,
2013-09-13 21:55:00,63.0,50.7,29.89,North,5,5.0,18.0,64,0.00,,---,0.00,VWS V14.01,2013-09-14 01:55:00,
2013-09-13 21:57:00,60.9,50.3,29.92,East,93,0.0,3.0,68,0.00,,---,0.00,VWS V14.01,2013-09-14 01:57:00,
2013-09-13 22:00:00,62.8,50.0,29.90,NNE,20,9.0,13.0,63,0.00,,---,0.00,VWS V14.01,2013-09-14 02:00:00,
2013-09-13 22:02:00,60.9,51.1,29.93,East,93,0.0,0.0,70,0.00,,---,0.00,VWS V14.01,2013-09-14 02:02:00,
2013-09-13 22:05:00,62.6,49.8,29.90,NNE,22,5.0,21.0,63,0.00,,---,0.00,VWS V14.01,2013-09-14 02:05:00,
2013-09-13 22:07:00,60.7,50.5,29.93,NNE,23,9.0,10.0,69,0.00,,---,0.00,VWS V14.01,2013-09-14 02:07:00,
2013-09-13 22:10:00,62.5,49.8,29.90,East,88,4.0,10.0,63,0.00,,---,0.00,VWS V14.01,2013-09-14 02:10:00,
2013-09-13 22:12:00,60.7,50.9,29.93,NE,44,0.0,1.0,70,0.00,,---,0.00,VWS V14.01,2013-09-14 02:12:00,
2013-09-13 22:15:00,62.3,50.0,29.90,East,90,6.0,9.0,64,0.00,,---,0.00,VWS V14.01,2013-09-14 02:15:00,
2013-09-13 22:17:00,60.7,51.2,29.93,NE,38,2.0,4.0,71,0.00,,---,0.00,VWS V14.01,2013-09-14 02:17:00,
2013-09-13 22:20:00,62.2,49.9,29.90,ENE,62,4.0,12.0,64,0.00,,---,0.00,VWS V14.01,2013-09-14 02:20:00,
2013-09-13 22:22:00,60.6,51.9,29.93,NNE,13,3.0,5.0,73,0.00,,---,0.00,VWS V14.01,2013-09-14 02:22:00,
2013-09-13 22:25:00,61.8,49.9,29.90,ENE,63,3.0,11.0,65,0.00,,---,0.00,VWS V14.01,2013-09-14 02:25:00,
2013-09-13 22:27:00,60.3,50.5,29.93,NE,38,4.0,5.0,70,0.00,,---,0.00,VWS V14.01,2013-09-14 02:27:00,
2013-09-13 22:30:00,61.7,49.8,29.91,East,84,0.0,6.0,65,0.00,,---,0.00,VWS V14.01,2013-09-14 02:30:00,
2013-09-13 22:32:00,60.3,51.2,29.94,NNW,344,0.0,3.0,72,0.00,,---,0.00,VWS V14.01,2013-09-14 02:32:00,
2013-09-13 22:35:00,61.5,50.0,29.91,ESE,113,3.0,10.0,66,0.00,,---,0.00,VWS V14.01,2013-09-14 02:35:00,
2013-09-13 22:37:00,60.1,49.9,29.94,ENE,59,3.0,4.0,69,0.00,,---,0.00,VWS V14.01,2013-09-14 02:37:00,
2013-09-13 22:40:00,61.2,49.8,29.91,ESE,104,4.0,9.0,66,0.00,,---,0.00,VWS V14.01,2013-09-14 02:40:00,
2013-09-13 22:42:00,60.3,50.5,29.94,ENE,62,0.0,1.0,70,0.00,,---,0.00,VWS V14.01,2013-09-14 02:42:00,
2013-09-13 22:45:00,61.2,49.8,29.92,ESE,121,4.0,6.0,66,0.00,,---,0.00,VWS V14.01,2013-09-14 02:45:00,
2013-09-13 22:47:00,60.1,50.3,29.95,ENE,66,1.0,2.0,70,0.00,,---,0.00,VWS V14.01,2013-09-14 02:47:00,
2013-09-13 22:50:00,61.1,50.1,29.92,East,93,2.0,5.0,67,0.00,,---,0.00,VWS V14.01,2013-09-14 02:50:00,
2013-09-13 22:52:00,60.1,50.3,29.95,NNE,28,11.0,16.0,70,0.00,,---,0.00,VWS V14.01,2013-09-14 02:52:00,
2013-09-13 22:55:00,60.9,50.3,29.92,East,93,3.0,3.0,68,0.00,,---,0.00,VWS V14.01,2013-09-14 02:55:00,
2013-09-13 22:57:00,60.1,48.7,29.95,East,83,1.0,4.0,66,0.00,,---,0.00,VWS V14.01,2013-09-14 02:57:00,
2013-09-13 23:00:00,60.9,51.1,29.93,East,93,0.0,3.0,70,0.00,,---,0.00,VWS V14.01,2013-09-14 03:00:00,
2013-09-13 23:02:00,60.1,50.3,29.95,East,82,1.0,1.0,70,0.00,,---,0.00,VWS V14.01,2013-09-14 03:02:00,
2013-09-13 23:05:00,60.7,50.9,29.93,ESE,102,6.0,6.0,70,0.00,,---,0.00,VWS V14.01,2013-09-14 03:05:00,
2013-09-13 23:07:00,60.0,50.6,29.95,NE,52,1.0,4.0,71,0.00,,---,0.00,VWS V14.01,2013-09-14 03:07:00,
2013-09-13 23:10:00,60.7,50.5,29.93,NE,44,0.0,10.0,69,0.00,,---,0.00,VWS V14.01,2013-09-14 03:10:00,
2013-09-13 23:12:00,59.8,48.8,29.95,East,96,2.0,5.0,67,0.00,,---,0.00,VWS V14.01,2013-09-14 03:12:00,
2013-09-13 23:15:00,60.7,51.2,29.93,NE,44,2.0,3.0,71,0.00,,---,0.00,VWS V14.01,2013-09-14 03:15:00,
2013-09-13 23:17:00,59.6,49.8,29.95,North,360,0.0,5.0,70,0.00,,---,0.00,VWS V14.01,2013-09-14 03:17:00,
2013-09-13 23:20:00,60.7,51.2,29.93,East,94,0.0,4.0,71,0.00,,---,0.00,VWS V14.01,2013-09-14 03:20:00,
2013-09-13 23:22:00,59.3,48.8,29.95,ENE,74,1.0,3.0,68,0.00,,---,0.00,VWS V14.01,2013-09-14 03:22:00,
2013-09-13 23:25:00,60.4,51.0,29.93,East,85,2.0,5.0,71,0.00,,---,0.00,VWS V14.01,2013-09-14 03:25:00,
2013-09-13 23:27:00,59.2,48.7,29.95,ENE,72,3.0,4.0,68,0.00,,---,0.00,VWS V14.01,2013-09-14 03:27:00,
2013-09-13 23:30:00,60.3,51.2,29.94,NNW,344,2.0,6.0,72,0.00,,---,0.00,VWS V14.01,2013-09-14 03:30:00,
2013-09-13 23:32:00,59.2,48.3,29.95,ENE,71,3.0,4.0,67,0.00,,---,0.00,VWS V14.01,2013-09-14 03:32:00,
2013-09-13 23:35:00,60.1,49.5,29.94,NNW,348,3.0,7.0,68,0.00,,---,0.00,VWS V14.01,2013-09-14 03:35:00,
2013-09-13 23:37:00,59.2,50.6,29.95,NW,315,4.0,5.0,73,0.00,,---,0.00,VWS V14.01,2013-09-14 03:37:00,
2013-09-13 23:40:00,60.3,50.1,29.94,ENE,62,0.0,4.0,69,0.00,,---,0.00,VWS V14.01,2013-09-14 03:40:00,
2013-09-13 23:42:00,58.7,50.5,29.95,NNW,346,1.0,4.0,74,0.00,,---,0.00,VWS V14.01,2013-09-14 03:42:00,
2013-09-13 23:45:00,60.3,50.5,29.95,ENE,66,2.0,6.0,70,0.00,,---,0.00,VWS V14.01,2013-09-14 03:45:00,
2013-09-13 23:47:00,58.3,50.8,29.95,NNW,346,1.0,3.0,76,0.00,,---,0.00,VWS V14.01,2013-09-14 03:47:00,
2013-09-13 23:50:00,60.1,50.3,29.95,ENE,64,0.0,4.0,70,0.00,,---,0.00,VWS V14.01,2013-09-14 03:50:00,
2013-09-13 23:52:00,57.8,50.7,29.95,NNW,347,3.0,3.0,77,0.00,,---,0.00,VWS V14.01,2013-09-14 03:52:00,
2013-09-13 23:55:00,60.0,48.6,29.95,East,96,1.0,16.0,66,0.00,,---,0.00,VWS V14.01,2013-09-14 03:55:00,
2013-09-13 23:57:00,57.4,50.6,29.95,NW,325,5.0,5.0,78,0.00,,---,0.00,VWS V14.01,2013-09-14 03:57:00,